Forside
METAR-TAF:

METAR-TAF

Lufthavne :

Rock Springs - Sweetwater County Airport

Rock Springs, Wyoming, USA

Breddekreds: 41-35-39N, længdekreds: 109-03-55W, højde: 2060 m

Aktuelle vejr

Denne rapport blev lavet for 46 minutter siden, kl. 07:54 UTC
Vind 5 kt fra sydsydvest
Temperatur -13°C
Fugtighed 78%
Tryk 1023 hPa
Sigt: 16.1 km
skyfri

METAR: KRKS 220754Z AUTO 20005KT 10SM CLR M13/M16 A3021 RMK AO2 SLP307 T11281156

Tid: 01:40 (08:40 UTC)

Vejrudsigter

Denne rapport blev lavet for 3 timer og 18 minutter siden, kl. 05:22 UTC
Foreløbig gælder fra 22 på 06 UTC til 23 på 06 UTC
Vind 7 kt fra vestsydvest
Sigt: 10 km
Nogle få skyer i en højde af 10000 ft
Spredte skyer i en højde af 20000 ft

TAF: KRKS 220522Z 2206/2306 25007KT P6SM FEW100 SCT200

Vejrobservationer og prognoser fra mere end 4000 lufthavne (METAR og TAF).

De gule og røde prikker repræsenterer de meteorologiske stationer.

Flyt musen over at se navnet på stationen.

Så klik over at se vejr observationer og prognoser.

At skifte det kort: Klik på de grønne knapper med et sort kors for at zoome ind; på den grønne knap med en bindestreg for at zoome ud; eller på de grønne pile for tilstødende kort.


METAR-TAF: